Time;durP1;ratioP1;P1;durP2;ratioP2;P2;SDS_P1;SDS_P2;PMS_P1;PMS_P2;Temp;Humidity;BMP_temperature;BMP_pressure;BME280_temperature;BME280_humidity;BME280_pressure;Samples;Min_cycle;Max_cycle;Signal;HPM_P1;HPM_P2
2023/05/02 00:00:30;;;;;;;24.40;10.23;;;11.00;99.90;;;;;;5062831;28;20489;-41
2023/05/02 00:02:56;;;;;;;20.33;9.60;;;10.90;99.90;;;;;;5052890;28;20025;-41
2023/05/02 00:05:22;;;;;;;20.35;9.73;;;10.90;99.90;;;;;;5058822;28;20118;-43
2023/05/02 00:07:48;;;;;;;30.35;9.85;;;10.90;99.90;;;;;;5073103;28;20450;-42
2023/05/02 00:10:14;;;;;;;24.08;10.88;;;10.90;99.90;;;;;;5066276;28;20086;-42
2023/05/02 00:12:39;;;;;;;24.73;10.35;;;10.90;99.90;;;;;;5052781;28;20025;-43
2023/05/02 00:15:05;;;;;;;26.67;10.60;;;10.90;99.90;;;;;;5065436;28;20379;-39
2023/05/02 00:17:31;;;;;;;20.20;9.93;;;11.00;99.90;;;;;;5064147;28;20033;-45
2023/05/02 00:19:58;;;;;;;27.30;9.88;;;10.90;99.90;;;;;;5071594;28;20175;-41
2023/05/02 00:22:24;;;;;;;20.48;10.30;;;11.00;99.90;;;;;;5072703;28;20437;-42
2023/05/02 00:24:50;;;;;;;21.38;9.88;;;11.00;99.90;;;;;;5069536;28;20053;-41
2023/05/02 00:27:16;;;;;;;26.50;9.60;;;11.00;99.90;;;;;;5052823;28;20029;-42
2023/05/02 00:29:41;;;;;;;22.15;10.00;;;11.10;99.90;;;;;;5052520;28;20059;-41
2023/05/02 00:32:07;;;;;;;19.00;9.30;;;11.10;99.90;;;;;;5067209;28;20029;-44
2023/05/02 00:34:33;;;;;;;22.55;9.52;;;11.20;99.90;;;;;;5071313;28;20126;-44
2023/05/02 00:36:58;;;;;;;21.80;8.52;;;11.20;99.90;;;;;;5072741;28;20020;-43
2023/05/02 00:39:24;;;;;;;16.90;8.80;;;11.20;99.90;;;;;;5072514;28;20017;-44
2023/05/02 00:41:59;;;;;;;15.13;8.65;;;11.20;99.90;;;;;;5052879;28;20032;-43
2023/05/02 00:44:25;;;;;;;18.50;7.18;;;11.20;99.90;;;;;;5056412;28;20020;-44
2023/05/02 00:46:52;;;;;;;18.05;7.45;;;11.20;99.90;;;;;;5070891;28;20039;-42
2023/05/02 00:49:18;;;;;;;16.50;5.90;;;11.20;99.90;;;;;;5070808;28;20131;-43
2023/05/02 00:51:43;;;;;;;12.77;6.10;;;11.10;99.90;;;;;;5072375;28;20035;-43
2023/05/02 00:54:10;;;;;;;11.25;4.75;;;11.20;99.90;;;;;;5069243;28;20465;-44
2023/05/02 00:56:36;;;;;;;11.53;5.60;;;11.10;99.90;;;;;;5052332;28;20025;-41
2023/05/02 00:59:04;;;;;;;14.60;5.15;;;11.10;99.90;;;;;;5053754;28;20105;-42
2023/05/02 01:01:59;;;;;;;7.35;4.07;;;11.10;99.90;;;;;;5072189;28;20569;-40
2023/05/02 01:04:52;;;;;;;7.13;4.40;;;11.20;99.90;;;;;;5070643;28;20017;-41
2023/05/02 01:07:27;;;;;;;7.85;4.22;;;11.20;99.90;;;;;;5052163;28;20025;-43
2023/05/02 01:09:59;;;;;;;12.30;3.60;;;11.20;99.90;;;;;;5055315;28;20044;-42
2023/05/02 01:12:43;;;;;;;15.93;4.53;;;11.20;99.90;;;;;;5052634;28;20090;-41
2023/05/02 01:15:15;;;;;;;11.40;3.70;;;11.20;99.90;;;;;;5065688;28;20247;-41
2023/05/02 01:17:42;;;;;;;9.15;3.05;;;11.20;99.90;;;;;;5075791;28;20499;-41
2023/05/02 01:20:13;;;;;;;9.27;3.22;;;11.20;99.90;;;;;;5070013;28;20024;-41
2023/05/02 01:22:40;;;;;;;10.98;3.45;;;11.20;99.90;;;;;;5074181;28;20028;-47
2023/05/02 01:25:27;;;;;;;11.43;3.08;;;11.10;99.90;;;;;;5071141;28;20021;-42
2023/05/02 01:28:00;;;;;;;8.18;3.28;;;11.10;99.90;;;;;;5070369;28;20381;-41
2023/05/02 01:30:28;;;;;;;12.52;3.20;;;11.10;99.90;;;;;;5064565;28;20544;-42
2023/05/02 01:32:55;;;;;;;9.38;3.58;;;11.00;99.90;;;;;;5075872;28;20504;-43
2023/05/02 01:35:22;;;;;;;15.70;3.28;;;11.00;99.90;;;;;;5074367;28;20397;-40
2023/05/02 01:37:50;;;;;;;3.17;2.27;;;11.00;99.90;;;;;;5075396;28;20077;-42
2023/05/02 01:40:19;;;;;;;4.28;2.22;;;11.00;99.90;;;;;;5071299;28;20025;-41
2023/05/02 01:42:47;;;;;;;7.15;2.40;;;11.00;99.90;;;;;;5055476;28;20021;-42
2023/05/02 01:45:14;;;;;;;16.50;2.83;;;10.90;99.90;;;;;;5055533;28;20466;-33
2023/05/02 01:47:43;;;;;;;5.53;2.33;;;10.80;99.90;;;;;;5054888;28;20498;-35
2023/05/02 01:50:12;;;;;;;10.60;2.42;;;10.80;99.90;;;;;;5056599;28;20065;-36
2023/05/02 01:52:39;;;;;;;16.20;3.08;;;10.80;99.90;;;;;;5069423;28;20032;-35
2023/05/02 01:55:10;;;;;;;14.10;2.72;;;10.80;99.90;;;;;;5074478;28;20037;-37
2023/05/02 01:57:38;;;;;;;12.30;2.53;;;10.80;99.90;;;;;;5073389;28;20468;-37
2023/05/02 02:00:05;;;;;;;7.32;2.80;;;10.80;99.90;;;;;;5074976;28;20392;-37
2023/05/02 02:02:33;;;;;;;12.75;1.90;;;10.80;99.90;;;;;;5075401;28;20040;-36
2023/05/02 02:05:01;;;;;;;11.63;2.30;;;10.80;99.90;;;;;;5072403;28;20037;-37
2023/05/02 02:07:27;;;;;;;5.63;1.40;;;10.70;99.90;;;;;;5071018;28;20029;-35
2023/05/02 02:09:53;;;;;;;7.95;1.60;;;10.70;99.90;;;;;;5054935;28;20039;-37
2023/05/02 02:12:23;;;;;;;6.70;2.17;;;10.70;99.90;;;;;;5065691;28;20039;-36
2023/05/02 02:15:15;;;;;;;11.05;1.90;;;10.70;99.90;;;;;;5100467;28;20085;-35
2023/05/02 02:18:07;;;;;;;3.10;1.30;;;10.60;99.90;;;;;;5058579;28;20056;-38
2023/05/02 02:20:34;;;;;;;7.50;1.25;;;10.60;99.90;;;;;;5073407;28;20067;-38
2023/05/02 02:23:04;;;;;;;8.20;1.55;;;10.50;99.90;;;;;;5074922;28;20037;-37
2023/05/02 02:25:31;;;;;;;6.45;0.90;;;10.50;99.90;;;;;;5054532;28;20115;-38
2023/05/02 02:27:57;;;;;;;3.35;1.10;;;10.40;99.90;;;;;;5054190;28;20508;-36
2023/05/02 02:30:23;;;;;;;4.97;1.45;;;10.40;99.90;;;;;;5065478;28;20123;-38
2023/05/02 02:32:48;;;;;;;4.95;1.00;;;10.40;99.90;;;;;;5074265;28;20182;-39
2023/05/02 02:35:15;;;;;;;1.60;0.85;;;10.40;99.90;;;;;;5071668;28;20487;-37
2023/05/02 02:37:46;;;;;;;5.95;1.38;;;10.40;99.90;;;;;;5074311;28;20376;-35
2023/05/02 02:40:15;;;;;;;5.45;0.73;;;10.40;99.90;;;;;;5074181;28;20051;-38
2023/05/02 02:42:56;;;;;;;4.70;1.00;;;10.40;99.90;;;;;;5074286;28;20603;-38
2023/05/02 02:45:49;;;;;;;6.10;1.50;;;10.40;99.90;;;;;;5059452;28;20041;-37
2023/05/02 02:48:46;;;;;;;3.28;0.95;;;10.40;99.90;;;;;;5069911;28;20101;-36
2023/05/02 02:51:52;;;;;;;6.15;1.00;;;10.30;99.90;;;;;;5056539;28;20043;-35
2023/05/02 02:54:29;;;;;;;2.58;0.90;;;10.30;99.90;;;;;;5044580;28;20396;-36
2023/05/02 02:57:01;;;;;;;7.53;1.20;;;10.30;99.90;;;;;;5070293;28;20087;-35
2023/05/02 02:59:34;;;;;;;6.30;1.10;;;10.20;99.90;;;;;;5073974;28;20141;-35
2023/05/02 03:02:08;;;;;;;3.33;0.90;;;10.30;99.90;;;;;;5074187;28;20428;-38
2023/05/02 03:04:37;;;;;;;6.93;1.23;;;10.30;99.90;;;;;;5072421;28;20017;-34
2023/05/02 03:07:03;;;;;;;6.40;1.77;;;10.30;99.90;;;;;;5073658;28;20094;-34
2023/05/02 03:09:46;;;;;;;11.25;1.75;;;10.30;99.90;;;;;;5073728;28;20112;-36
2023/05/02 03:12:13;;;;;;;8.63;1.15;;;10.30;99.90;;;;;;5073764;28;20032;-36
2023/05/02 03:14:39;;;;;;;4.28;0.90;;;10.30;99.90;;;;;;5064386;28;20432;-39
2023/05/02 03:17:07;;;;;;;3.80;1.00;;;10.20;99.90;;;;;;5053845;28;20112;-33
2023/05/02 03:19:32;;;;;;;4.13;0.70;;;10.20;99.90;;;;;;5058712;28;20024;-37
2023/05/02 03:21:58;;;;;;;2.10;1.17;;;10.20;99.90;;;;;;5073393;28;20470;-38
2023/05/02 03:24:26;;;;;;;5.28;1.30;;;10.20;99.90;;;;;;5066503;28;20066;-33
2023/05/02 03:26:54;;;;;;;6.10;1.10;;;10.20;99.90;;;;;;5053363;28;20473;-38
2023/05/02 03:29:20;;;;;;;4.80;1.58;;;10.20;99.90;;;;;;5053395;28;20032;-34
2023/05/02 03:31:45;;;;;;;3.95;0.63;;;10.10;99.90;;;;;;5061123;28;20024;-35
2023/05/02 03:34:11;;;;;;;2.33;0.73;;;10.10;99.90;;;;;;5072113;28;20089;-36
2023/05/02 03:36:37;;;;;;;2.60;0.80;;;10.10;99.90;;;;;;5073212;28;20418;-34
2023/05/02 03:39:02;;;;;;;6.63;0.93;;;10.10;99.90;;;;;;5072158;28;20024;-35
2023/05/02 03:41:28;;;;;;;3.22;0.85;;;10.10;99.90;;;;;;5073009;28;20024;-38
2023/05/02 03:43:53;;;;;;;6.00;1.08;;;10.10;99.90;;;;;;5072163;28;20086;-33
2023/05/02 03:46:20;;;;;;;3.42;0.88;;;10.00;99.90;;;;;;5073178;28;20476;-38
2023/05/02 03:48:46;;;;;;;0.63;0.50;;;10.00;99.90;;;;;;5070062;28;20048;-32
2023/05/02 03:51:12;;;;;;;0.65;0.65;;;10.10;99.90;;;;;;5069814;28;20085;-38
2023/05/02 03:53:37;;;;;;;5.22;0.90;;;10.00;99.90;;;;;;5071296;28;20469;-37
2023/05/02 03:56:04;;;;;;;3.33;0.75;;;10.00;99.90;;;;;;5068895;28;20085;-34
2023/05/02 03:58:29;;;;;;;1.80;0.60;;;10.00;99.90;;;;;;5067120;28;20021;-35
2023/05/02 04:00:55;;;;;;;2.13;1.05;;;10.00;99.90;;;;;;5060168;28;20424;-32
2023/05/02 04:03:22;;;;;;;3.58;0.75;;;10.00;99.90;;;;;;5071122;28;20025;-37
2023/05/02 04:05:50;;;;;;;2.83;0.60;;;9.90;99.90;;;;;;5071703;28;20078;-38
2023/05/02 04:08:16;;;;;;;3.38;0.70;;;9.80;99.90;;;;;;5072836;28;20031;-37
2023/05/02 04:10:42;;;;;;;5.32;1.20;;;9.80;99.90;;;;;;5071639;28;20116;-32
2023/05/02 04:13:07;;;;;;;6.38;1.25;;;9.90;99.90;;;;;;5071438;28;20446;-35
2023/05/02 04:15:33;;;;;;;0.75;0.55;;;9.80;99.90;;;;;;5072792;28;20103;-39
2023/05/02 04:17:59;;;;;;;1.05;0.63;;;9.80;99.90;;;;;;5069401;28;20032;-38
2023/05/02 04:20:25;;;;;;;7.15;1.17;;;9.70;99.90;;;;;;5071671;28;20025;-35
2023/05/02 04:22:51;;;;;;;13.32;1.20;;;9.70;99.90;;;;;;5069104;28;20122;-37
2023/05/02 04:25:16;;;;;;;6.20;1.00;;;9.70;99.90;;;;;;5072024;28;20052;-35
2023/05/02 04:27:42;;;;;;;7.00;1.00;;;9.70;99.90;;;;;;5064606;28;20422;-38
2023/05/02 04:30:11;;;;;;;4.50;1.00;;;9.70;99.90;;;;;;5067751;28;20037;-33
2023/05/02 04:32:37;;;;;;;5.43;0.73;;;9.70;99.90;;;;;;5071612;28;20112;-35
2023/05/02 04:35:04;;;;;;;5.35;1.60;;;9.60;99.90;;;;;;5069039;28;20119;-37
2023/05/02 04:37:29;;;;;;;4.90;1.00;;;9.60;99.90;;;;;;5061316;28;20385;-34
2023/05/02 04:39:55;;;;;;;7.93;1.75;;;9.50;99.90;;;;;;5069409;28;20021;-35
2023/05/02 04:42:20;;;;;;;9.15;1.90;;;9.50;99.90;;;;;;5071138;28;20032;-38
2023/05/02 04:44:48;;;;;;;5.95;1.02;;;9.60;99.90;;;;;;5068418;28;20489;-36
2023/05/02 04:47:14;;;;;;;11.02;1.52;;;9.70;99.90;;;;;;5071842;28;20029;-33
2023/05/02 04:49:40;;;;;;;3.45;1.30;;;9.70;99.90;;;;;;5069441;28;20049;-34
2023/05/02 04:52:06;;;;;;;6.15;1.40;;;9.70;99.90;;;;;;5072321;28;20021;-36
2023/05/02 04:54:33;;;;;;;7.65;2.13;;;9.70;99.90;;;;;;5074943;28;20035;-38
2023/05/02 04:56:58;;;;;;;13.40;1.73;;;9.70;99.90;;;;;;5074192;28;20040;-38
2023/05/02 04:59:24;;;;;;;6.00;1.90;;;9.70;99.90;;;;;;5071165;28;20124;-35
2023/05/02 05:01:50;;;;;;;12.27;1.55;;;9.70;99.90;;;;;;5074117;28;20037;-36
2023/05/02 05:04:15;;;;;;;3.65;1.33;;;9.70;99.90;;;;;;5072682;28;20389;-37
2023/05/02 05:06:41;;;;;;;10.60;1.50;;;9.80;99.90;;;;;;5073447;28;20036;-33
2023/05/02 05:09:07;;;;;;;9.52;1.77;;;9.80;99.90;;;;;;5073758;28;20024;-38
2023/05/02 05:11:33;;;;;;;8.35;2.38;;;9.80;99.90;;;;;;5075132;28;20389;-35
2023/05/02 05:13:59;;;;;;;12.32;2.83;;;9.80;99.90;;;;;;5074050;28;20402;-33
2023/05/02 05:16:25;;;;;;;10.60;2.33;;;9.80;99.90;;;;;;5073111;28;20427;-35
2023/05/02 05:18:52;;;;;;;9.48;2.55;;;9.90;99.90;;;;;;5074846;28;20025;-39
2023/05/02 05:21:18;;;;;;;16.90;2.28;;;10.00;99.90;;;;;;5065966;28;20020;-31
2023/05/02 05:23:44;;;;;;;7.05;1.30;;;10.00;99.90;;;;;;5075652;28;20024;-33
2023/05/02 05:26:16;;;;;;;9.02;1.77;;;10.00;99.90;;;;;;5076024;28;20484;-37
2023/05/02 05:28:43;;;;;;;11.13;1.77;;;10.00;99.90;;;;;;5074402;28;20059;-38
2023/05/02 05:31:10;;;;;;;10.57;1.50;;;10.00;99.90;;;;;;5056119;28;20029;-36
2023/05/02 05:33:37;;;;;;;6.07;1.52;;;10.00;99.90;;;;;;5055590;28;20075;-38
2023/05/02 05:36:04;;;;;;;4.55;1.83;;;10.00;99.90;;;;;;5065231;28;20103;-38
2023/05/02 05:38:30;;;;;;;6.25;1.80;;;10.00;99.90;;;;;;5073856;28;20036;-36
2023/05/02 05:40:56;;;;;;;15.82;2.78;;;9.90;99.90;;;;;;5075459;28;20378;-37
2023/05/02 05:43:21;;;;;;;9.90;2.25;;;9.90;99.90;;;;;;5075187;28;20036;-38
2023/05/02 05:45:47;;;;;;;11.75;1.77;;;9.90;99.90;;;;;;5075356;28;20500;-33
2023/05/02 05:48:13;;;;;;;6.40;1.48;;;9.90;99.90;;;;;;5073365;28;20032;-41
2023/05/02 05:50:38;;;;;;;11.68;2.13;;;9.90;99.90;;;;;;5060805;28;20033;-33
2023/05/02 05:53:04;;;;;;;4.50;1.48;;;9.90;99.90;;;;;;5064367;28;20036;-35
2023/05/02 05:55:29;;;;;;;9.38;1.92;;;9.90;99.90;;;;;;5073035;28;20031;-34
2023/05/02 05:57:55;;;;;;;11.50;1.25;;;10.00;99.90;;;;;;5075290;28;20025;-36
2023/05/02 06:00:21;;;;;;;5.70;1.20;;;10.00;99.90;;;;;;5075052;28;20141;-39
2023/05/02 06:02:46;;;;;;;4.13;1.08;;;10.00;99.90;;;;;;5072458;28;20469;-41
2023/05/02 06:05:12;;;;;;;10.73;1.60;;;10.00;99.90;;;;;;5074262;28;20031;-36
2023/05/02 06:07:38;;;;;;;10.52;1.55;;;10.10;99.90;;;;;;5055240;28;20067;-37
2023/05/02 06:10:04;;;;;;;7.20;1.40;;;10.10;99.90;;;;;;5054893;28;20021;-34
2023/05/02 06:12:30;;;;;;;9.98;1.45;;;10.20;99.90;;;;;;5071838;28;20523;-36
2023/05/02 06:14:55;;;;;;;3.30;1.10;;;10.30;99.90;;;;;;5074845;28;20020;-37
2023/05/02 06:17:21;;;;;;;6.32;0.82;;;10.30;99.90;;;;;;5074938;28;20067;-37
2023/05/02 06:19:46;;;;;;;9.02;2.55;;;10.30;99.90;;;;;;5074640;28;20029;-39
2023/05/02 06:22:13;;;;;;;4.47;1.23;;;10.30;99.90;;;;;;5073204;28;20029;-35
2023/05/02 06:24:38;;;;;;;5.57;1.17;;;10.40;99.90;;;;;;5058431;28;20025;-36
2023/05/02 06:27:04;;;;;;;5.60;0.98;;;10.30;99.90;;;;;;5061929;28;20523;-38
2023/05/02 06:29:29;;;;;;;114.20;11.00;;;10.40;99.90;;;;;;5074642;28;20044;-37
2023/05/02 06:31:55;;;;;;;14.07;2.10;;;10.50;99.90;;;;;;5064843;28;20389;-38
2023/05/02 06:34:21;;;;;;;3.75;1.08;;;10.60;99.90;;;;;;5054368;28;20025;-36
2023/05/02 06:36:47;;;;;;;3.33;0.90;;;10.60;99.90;;;;;;5062226;28;20032;-40
2023/05/02 06:39:13;;;;;;;4.35;0.80;;;10.70;99.90;;;;;;5074331;28;20078;-37
2023/05/02 06:41:38;;;;;;;7.05;1.00;;;10.80;99.90;;;;;;5062611;28;20061;-34
2023/05/02 06:44:04;;;;;;;3.15;0.75;;;10.80;99.90;;;;;;5054051;28;20541;-40
2023/05/02 06:46:30;;;;;;;8.13;1.15;;;10.70;99.90;;;;;;5061429;28;20028;-37
2023/05/02 06:48:56;;;;;;;8.30;1.10;;;10.50;99.90;;;;;;5054016;28;20045;-39
2023/05/02 06:51:22;;;;;;;2.42;1.42;;;10.50;99.90;;;;;;5061673;28;20080;-38
2023/05/02 06:53:47;;;;;;;10.43;1.60;;;10.40;99.90;;;;;;5074074;28;20017;-37
2023/05/02 06:56:13;;;;;;;12.57;1.83;;;10.40;99.90;;;;;;5068645;28;20078;-34
2023/05/02 06:58:39;;;;;;;5.13;1.42;;;10.40;99.90;;;;;;5061029;28;20433;-40
2023/05/02 07:01:05;;;;;;;8.32;2.30;;;10.30;99.90;;;;;;5074016;28;20107;-38
2023/05/02 07:03:30;;;;;;;12.32;1.75;;;10.30;99.90;;;;;;5073875;28;20016;-36
2023/05/02 07:05:56;;;;;;;3.38;1.05;;;10.40;99.90;;;;;;5073758;28;20025;-34
2023/05/02 07:08:22;;;;;;;6.25;1.13;;;10.40;99.90;;;;;;5074042;28;20028;-35
2023/05/02 07:10:49;;;;;;;3.40;1.15;;;10.30;99.90;;;;;;5072928;28;20033;-36
2023/05/02 07:13:15;;;;;;;6.10;0.93;;;10.10;99.90;;;;;;5073477;28;20479;-37
2023/05/02 07:15:42;;;;;;;5.70;1.17;;;10.00;99.90;;;;;;5073521;28;20099;-36
2023/05/02 07:18:07;;;;;;;1.87;0.70;;;10.00;99.90;;;;;;5058002;28;20495;-37
2023/05/02 07:20:33;;;;;;;11.90;1.42;;;10.10;99.90;;;;;;5053507;28;20032;-32
2023/05/02 07:22:59;;;;;;;12.50;1.48;;;10.10;99.90;;;;;;5071935;28;20512;-36
2023/05/02 07:25:24;;;;;;;11.55;1.85;;;10.10;99.90;;;;;;5072295;28;20024;-39
2023/05/02 07:27:50;;;;;;;4.07;1.67;;;10.00;99.90;;;;;;5068742;28;20066;-36
2023/05/02 07:30:15;;;;;;;6.18;1.13;;;10.00;99.90;;;;;;5070118;28;20024;-39
2023/05/02 07:32:41;;;;;;;9.10;1.77;;;10.00;99.90;;;;;;5053080;28;20500;-37
2023/05/02 07:35:07;;;;;;;5.78;1.65;;;10.10;99.90;;;;;;5053350;28;20032;-36
2023/05/02 07:37:34;;;;;;;6.60;1.58;;;10.10;99.90;;;;;;5053189;28;20404;-36
2023/05/02 07:40:00;;;;;;;8.32;1.17;;;10.20;99.90;;;;;;5063615;28;20024;-38
2023/05/02 07:42:30;;;;;;;2.78;1.08;;;10.30;99.90;;;;;;5053030;28;20061;-36
2023/05/02 07:44:55;;;;;;;2.00;0.60;;;10.30;99.90;;;;;;5054675;28;20448;-38
2023/05/02 07:47:21;;;;;;;3.72;0.77;;;10.40;99.90;;;;;;5067326;28;20107;-38
2023/05/02 07:49:50;;;;;;;3.33;0.68;;;10.60;99.90;;;;;;5071959;28;20040;-35
2023/05/02 07:52:16;;;;;;;1.38;0.60;;;10.70;99.90;;;;;;5053068;28;20107;-39
2023/05/02 07:54:41;;;;;;;1.10;0.30;;;10.90;99.90;;;;;;5072693;28;20056;-35
2023/05/02 07:57:07;;;;;;;3.75;0.95;;;11.00;99.90;;;;;;5066370;28;20061;-39
2023/05/02 07:59:33;;;;;;;4.57;0.82;;;11.00;99.90;;;;;;5065215;28;20048;-35
2023/05/02 08:01:59;;;;;;;6.90;0.80;;;11.10;99.90;;;;;;5055488;28;20029;-39
2023/05/02 08:04:25;;;;;;;6.18;0.65;;;11.20;99.90;;;;;;5062799;28;20016;-36
2023/05/02 08:06:51;;;;;;;2.42;0.85;;;11.40;99.90;;;;;;5069685;28;20081;-39
2023/05/02 08:09:16;;;;;;;2.63;0.70;;;11.30;99.90;;;;;;5060156;28;20501;-40
2023/05/02 08:11:42;;;;;;;4.22;1.15;;;11.30;99.90;;;;;;5064197;28;20040;-38
2023/05/02 08:14:08;;;;;;;5.38;0.65;;;11.20;99.90;;;;;;5066093;28;20076;-37
2023/05/02 08:16:33;;;;;;;4.13;0.88;;;11.10;99.90;;;;;;5069095;28;20028;-39
2023/05/02 08:18:59;;;;;;;6.15;0.98;;;11.00;99.90;;;;;;5068249;28;20017;-37
2023/05/02 08:21:26;;;;;;;1.27;0.47;;;11.00;99.90;;;;;;5056773;28;20029;-39
2023/05/02 08:23:59;;;;;;;5.95;0.95;;;11.20;99.90;;;;;;5062442;28;20473;-38
2023/05/02 08:26:26;;;;;;;5.30;1.25;;;11.30;99.90;;;;;;5075384;28;20029;-39
2023/05/02 08:28:52;;;;;;;4.93;1.02;;;11.50;99.90;;;;;;5074674;28;20504;-37
2023/05/02 08:31:17;;;;;;;7.50;0.73;;;11.60;99.90;;;;;;5079205;28;20024;-38
2023/05/02 08:33:43;;;;;;;4.88;1.02;;;11.70;99.90;;;;;;5075978;28;20029;-35
2023/05/02 08:36:10;;;;;;;4.82;0.98;;;11.80;99.90;;;;;;5066000;28;20050;-37
2023/05/02 08:38:36;;;;;;;6.33;0.70;;;11.50;99.90;;;;;;5067495;28;20092;-37
2023/05/02 08:41:02;;;;;;;2.38;0.65;;;11.40;99.90;;;;;;5065850;28;20061;-39
2023/05/02 08:43:30;;;;;;;2.70;0.63;;;11.30;99.90;;;;;;5060522;28;20377;-40
2023/05/02 08:46:00;;;;;;;5.45;0.88;;;11.40;99.90;;;;;;5071325;28;20033;-37
2023/05/02 08:48:27;;;;;;;2.97;0.98;;;11.40;99.90;;;;;;5073425;28;20028;-37
2023/05/02 08:50:53;;;;;;;2.92;1.38;;;11.50;99.90;;;;;;5077085;28;20477;-36
2023/05/02 08:53:22;;;;;;;6.38;1.50;;;11.50;99.90;;;;;;5073821;28;20499;-36
2023/05/02 08:55:48;;;;;;;4.60;0.63;;;11.60;99.90;;;;;;5059523;28;20139;-32
2023/05/02 08:58:14;;;;;;;4.43;1.33;;;11.60;99.90;;;;;;5058950;28;20504;-36
2023/05/02 09:00:41;;;;;;;4.88;0.80;;;11.50;99.90;;;;;;5058803;28;20025;-39
2023/05/02 09:03:21;;;;;;;5.70;1.03;;;11.50;99.90;;;;;;5076517;28;20025;-37
2023/05/02 09:05:52;;;;;;;3.63;1.25;;;11.50;99.90;;;;;;5077856;28;20031;-39
2023/05/02 09:08:22;;;;;;;3.05;0.90;;;11.50;99.90;;;;;;5077301;28;20069;-39
2023/05/02 09:10:49;;;;;;;5.65;0.98;;;11.60;99.90;;;;;;5076888;28;20033;-39
2023/05/02 09:13:33;;;;;;;1.58;1.17;;;11.60;99.90;;;;;;5070773;28;20025;-41
2023/05/02 09:16:04;;;;;;;1.33;0.70;;;11.50;99.90;;;;;;5077246;28;20111;-37
2023/05/02 09:18:35;;;;;;;5.05;0.82;;;11.50;99.90;;;;;;5071896;28;20036;-38
2023/05/02 09:21:10;;;;;;;6.40;1.25;;;11.70;99.90;;;;;;5058933;28;20091;-40
2023/05/02 09:24:02;;;;;;;1.98;0.93;;;11.80;99.90;;;;;;5069710;28;20473;-35
2023/05/02 09:26:32;;;;;;;4.03;0.82;;;11.90;99.90;;;;;;5078882;28;20024;-41
2023/05/02 09:29:03;;;;;;;5.40;1.65;;;12.00;99.90;;;;;;5067923;28;20027;-41
2023/05/02 09:31:35;;;;;;;6.47;0.90;;;12.10;99.90;;;;;;5059327;28;20029;-37
2023/05/02 09:34:12;;;;;;;2.88;0.95;;;12.40;99.90;;;;;;5066738;28;20107;-38
2023/05/02 09:36:42;;;;;;;1.27;0.57;;;12.80;99.90;;;;;;5077299;28;20477;-35
2023/05/02 09:39:13;;;;;;;2.67;0.77;;;13.40;99.90;;;;;;5067816;28;20485;-37
2023/05/02 09:41:44;;;;;;;3.35;0.88;;;14.40;99.90;;;;;;5074068;28;20671;-36
2023/05/02 09:44:11;;;;;;;2.83;0.95;;;15.00;99.90;;;;;;5075321;28;20016;-37
2023/05/02 09:46:44;;;;;;;2.15;0.77;;;15.60;99.30;;;;;;5075248;28;20025;-33
2023/05/02 09:49:09;;;;;;;3.35;0.73;;;15.70;99.70;;;;;;5064092;28;20060;-36
2023/05/02 09:51:35;;;;;;;2.97;0.80;;;15.20;98.30;;;;;;5055199;28;20090;-36
2023/05/02 09:54:02;;;;;;;2.80;1.00;;;14.90;98.70;;;;;;5058749;28;20119;-34
2023/05/02 09:56:27;;;;;;;2.95;0.90;;;14.80;99.00;;;;;;5073477;28;20024;-36
2023/05/02 09:59:14;;;;;;;4.10;1.23;;;14.40;99.90;;;;;;5075222;28;20166;-37
2023/05/02 10:01:41;;;;;;;2.10;1.00;;;14.00;99.50;;;;;;5075157;28;20473;-37
2023/05/02 10:04:15;;;;;;;2.28;1.10;;;13.20;99.90;;;;;;5073378;28;20484;-37
2023/05/02 10:06:43;;;;;;;2.42;0.77;;;13.20;99.90;;;;;;5071430;28;20032;-39
2023/05/02 10:09:10;;;;;;;2.75;0.45;;;13.30;99.90;;;;;;5071663;28;20036;-38
2023/05/02 10:11:38;;;;;;;2.80;1.25;;;13.50;99.90;;;;;;5073583;28;20032;-40
2023/05/02 10:14:08;;;;;;;1.73;1.00;;;14.10;99.70;;;;;;5057289;28;20482;-36
2023/05/02 10:16:37;;;;;;;6.78;1.20;;;14.20;99.90;;;;;;5054387;28;20128;-38
2023/05/02 10:19:08;;;;;;;1.67;1.02;;;14.70;98.80;;;;;;5062817;28;20032;-39
2023/05/02 10:21:35;;;;;;;7.88;1.85;;;14.70;99.70;;;;;;5073331;28;20032;-37
2023/05/02 10:24:03;;;;;;;0.95;0.90;;;14.70;98.20;;;;;;5059979;28;20036;-38
2023/05/02 10:26:29;;;;;;;4.28;1.10;;;14.20;98.90;;;;;;5065219;28;20385;-38
2023/05/02 10:28:55;;;;;;;2.72;0.98;;;13.80;99.40;;;;;;5062475;28;20068;-37
2023/05/02 10:31:21;;;;;;;4.53;1.00;;;13.70;99.90;;;;;;5054465;28;20122;-39
2023/05/02 10:33:51;;;;;;;1.60;0.90;;;13.60;99.80;;;;;;5055352;28;20063;-35
2023/05/02 10:36:22;;;;;;;2.88;1.40;;;13.60;99.20;;;;;;5053723;28;20029;-36
2023/05/02 10:38:49;;;;;;;7.03;1.73;;;13.30;99.90;;;;;;5053934;28;20021;-32
2023/05/02 10:41:28;;;;;;;2.10;0.90;;;13.30;99.90;;;;;;5053647;28;20436;-39
2023/05/02 10:43:53;;;;;;;1.77;1.02;;;13.20;99.90;;;;;;5070827;28;20286;-39
2023/05/02 10:46:33;;;;;;;8.68;1.20;;;13.00;99.90;;;;;;5074104;28;20366;-38
2023/05/02 10:49:00;;;;;;;6.93;1.77;;;12.70;99.90;;;;;;5057618;28;20045;-39
2023/05/02 10:51:30;;;;;;;2.33;1.00;;;12.60;99.90;;;;;;5063256;28;20078;-34
2023/05/02 10:54:15;;;;;;;4.47;1.42;;;12.90;99.90;;;;;;5072912;28;20025;-37
2023/05/02 10:57:05;;;;;;;6.03;1.95;;;13.10;99.80;;;;;;5073281;28;20063;-42
2023/05/02 10:59:41;;;;;;;4.80;1.05;;;13.00;99.90;;;;;;5054227;28;20619;-36
2023/05/02 11:02:26;;;;;;;5.18;1.55;;;12.70;99.90;;;;;;5053797;28;20367;-39
2023/05/02 11:05:02;;;;;;;4.43;2.65;;;12.80;99.90;;;;;;5073846;28;20508;-38
2023/05/02 11:07:29;;;;;;;3.72;1.10;;;12.90;99.90;;;;;;5067706;28;20505;-36
2023/05/02 11:10:17;;;;;;;6.18;1.30;;;13.00;99.80;;;;;;5053705;28;20070;-38
2023/05/02 11:12:50;;;;;;;4.75;1.38;;;13.10;99.40;;;;;;5054072;28;20067;-39
2023/05/02 11:15:28;;;;;;;4.10;1.33;;;13.30;99.90;;;;;;5053309;28;20069;-38
2023/05/02 11:18:14;;;;;;;3.45;1.30;;;13.60;99.60;;;;;;5055119;28;20524;-37
2023/05/02 11:20:44;;;;;;;8.90;1.77;;;14.00;99.30;;;;;;5055466;28;20075;-37
2023/05/02 11:23:16;;;;;;;3.38;1.58;;;13.90;99.00;;;;;;5062635;28;20021;-33
2023/05/02 11:25:42;;;;;;;1.90;1.08;;;13.50;99.40;;;;;;5072097;28;20062;-37
2023/05/02 11:28:28;;;;;;;7.63;1.40;;;13.30;99.20;;;;;;5068553;28;20028;-42
2023/05/02 11:30:53;;;;;;;3.03;1.27;;;13.40;99.80;;;;;;5053379;28;20481;-41
2023/05/02 11:33:19;;;;;;;2.70;1.38;;;13.50;99.80;;;;;;5053329;28;20029;-43
2023/05/02 11:35:46;;;;;;;2.88;1.27;;;13.80;99.10;;;;;;5054637;28;20025;-44
2023/05/02 11:38:14;;;;;;;3.97;1.63;;;14.10;99.30;;;;;;5053443;28;20165;-41
2023/05/02 11:40:48;;;;;;;6.90;2.03;;;14.40;99.10;;;;;;5053354;28;20028;-39
2023/05/02 11:43:20;;;;;;;7.43;1.55;;;13.90;99.00;;;;;;5068887;28;20111;-42
2023/05/02 11:45:46;;;;;;;9.00;1.50;;;13.60;99.40;;;;;;5071747;28;20047;-43
2023/05/02 11:48:14;;;;;;;8.88;1.35;;;13.90;98.90;;;;;;5071381;28;20119;-39
2023/05/02 11:50:48;;;;;;;4.72;1.33;;;13.90;99.20;;;;;;5072793;28;20489;-42
2023/05/02 11:53:16;;;;;;;3.55;1.85;;;13.90;99.90;;;;;;5060551;28;20044;-43
2023/05/02 11:55:53;;;;;;;11.13;2.05;;;13.90;98.70;;;;;;5071419;28;20040;-43
2023/05/02 11:58:21;;;;;;;4.25;2.10;;;13.50;98.90;;;;;;5071370;28;20372;-41
2023/05/02 12:00:48;;;;;;;5.60;1.60;;;13.30;99.90;;;;;;5070944;28;20393;-40
2023/05/02 12:03:24;;;;;;;4.32;1.75;;;13.30;99.90;;;;;;5071910;28;20376;-40
2023/05/02 12:05:50;;;;;;;4.22;1.33;;;13.60;99.60;;;;;;5071787;28;20060;-45
2023/05/02 12:08:42;;;;;;;8.23;2.40;;;13.70;99.80;;;;;;5072778;28;20032;-42
2023/05/02 12:11:08;;;;;;;5.72;1.77;;;13.70;98.80;;;;;;5070861;28;20052;-44
2023/05/02 12:13:34;;;;;;;9.23;1.30;;;14.00;98.70;;;;;;5053137;28;20029;-44
2023/05/02 12:16:00;;;;;;;4.45;1.48;;;14.20;98.80;;;;;;5053753;28;20052;-41
2023/05/02 12:18:26;;;;;;;4.13;1.15;;;14.30;98.70;;;;;;5052666;28;20436;-38
2023/05/02 12:20:55;;;;;;;8.35;1.60;;;14.20;97.70;;;;;;5052640;28;20055;-45
2023/05/02 12:23:25;;;;;;;6.72;1.33;;;14.30;98.20;;;;;;5062305;28;20056;-41
2023/05/02 12:25:50;;;;;;;6.65;1.60;;;14.40;98.20;;;;;;5070916;28;20025;-44
2023/05/02 12:28:18;;;;;;;7.20;2.65;;;14.50;97.90;;;;;;5052554;28;20436;-41
2023/05/02 12:30:47;;;;;;;3.17;1.23;;;14.50;97.90;;;;;;5051401;28;20445;-43
2023/05/02 12:33:13;;;;;;;3.13;2.35;;;14.50;97.90;;;;;;5071183;28;20041;-42
2023/05/02 12:35:38;;;;;;;3.28;1.17;;;14.80;97.50;;;;;;5052908;28;20031;-43
2023/05/02 12:38:13;;;;;;;3.15;1.83;;;14.90;97.20;;;;;;5052490;28;20033;-40
2023/05/02 12:40:57;;;;;;;3.22;1.40;;;14.70;97.40;;;;;;5052558;28;20025;-43
2023/05/02 12:43:23;;;;;;;6.75;1.60;;;14.50;97.90;;;;;;5056265;28;20024;-40
2023/05/02 12:45:52;;;;;;;5.63;1.67;;;14.30;97.70;;;;;;5071743;28;20036;-45
2023/05/02 12:48:26;;;;;;;3.00;1.70;;;14.20;98.70;;;;;;5068321;28;20028;-41
2023/05/02 12:50:53;;;;;;;3.25;1.70;;;14.60;98.00;;;;;;5052250;28;20056;-43
2023/05/02 12:53:42;;;;;;;6.00;2.15;;;14.50;97.40;;;;;;5054850;28;20025;-43